createdAt,value
2022-12-15T00:00:41.767Z,3.92
2022-12-15T00:01:41.765Z,4.03
2022-12-15T00:02:41.892Z,4.07
2022-12-15T00:03:42.908Z,3.98
2022-12-15T00:04:41.891Z,4.00
2022-12-15T00:05:41.950Z,3.98
2022-12-15T00:06:41.996Z,3.97
2022-12-15T00:07:42.015Z,4.00
2022-12-15T00:08:42.096Z,4.10
2022-12-15T00:09:42.105Z,3.92
2022-12-15T00:10:42.788Z,3.96
2022-12-15T00:11:42.188Z,3.90
2022-12-15T00:12:42.231Z,4.01
2022-12-15T00:13:42.291Z,3.98
2022-12-15T00:14:54.830Z,3.97
2022-12-15T00:15:42.380Z,3.96
2022-12-15T00:16:42.390Z,3.98
2022-12-15T00:17:42.429Z,3.90
2022-12-15T00:18:42.490Z,3.89
2022-12-15T00:19:42.509Z,3.83
2022-12-15T00:20:43.332Z,3.89
2022-12-15T00:21:42.590Z,3.88
2022-12-15T00:22:42.664Z,3.75
2022-12-15T00:23:42.679Z,3.76
2022-12-15T00:24:42.746Z,3.80
2022-12-15T00:25:43.326Z,3.72
2022-12-15T00:26:42.803Z,3.79
2022-12-15T00:27:42.838Z,3.78
2022-12-15T00:28:43.817Z,3.76
2022-12-15T00:29:42.947Z,3.76
2022-12-15T00:30:42.965Z,3.76
2022-12-15T00:31:43.098Z,3.82
2022-12-15T00:32:43.823Z,3.82
2022-12-15T00:33:43.088Z,3.75
2022-12-15T00:34:43.158Z,3.75
2022-12-15T00:35:43.829Z,3.78
2022-12-15T00:36:43.247Z,3.75
2022-12-15T00:37:43.258Z,3.82
2022-12-15T00:38:43.295Z,3.79
2022-12-15T00:39:43.342Z,3.72
2022-12-15T00:40:43.407Z,3.76
2022-12-15T00:41:44.328Z,3.71
2022-12-15T00:42:43.464Z,3.71
2022-12-15T00:43:43.504Z,3.75
2022-12-15T00:44:43.546Z,3.80
2022-12-15T00:45:43.614Z,3.71
2022-12-15T00:46:43.686Z,3.78
2022-12-15T00:47:44.319Z,3.75
2022-12-15T00:48:43.713Z,3.72
2022-12-15T00:49:43.758Z,3.75
2022-12-15T00:50:43.813Z,3.78
2022-12-15T00:51:43.829Z,3.76
2022-12-15T00:52:43.899Z,3.78
2022-12-15T00:53:43.920Z,3.67
2022-12-15T00:54:43.950Z,3.76
2022-12-15T00:55:44.820Z,3.71
2022-12-15T00:56:44.041Z,3.70
2022-12-15T00:57:44.106Z,3.75
2022-12-15T00:58:44.116Z,3.67
2022-12-15T00:59:44.164Z,3.72
2022-12-15T01:00:44.209Z,3.75
2022-12-15T01:01:44.344Z,3.70
2022-12-15T01:02:44.444Z,3.70
2022-12-15T01:03:44.494Z,3.76
2022-12-15T01:04:44.373Z,3.64
2022-12-15T01:05:45.320Z,3.67
2022-12-15T01:06:44.447Z,3.67
2022-12-15T01:07:44.488Z,3.67
2022-12-15T01:08:44.550Z,3.67
2022-12-15T01:09:44.577Z,3.70
2022-12-15T01:10:45.322Z,3.65
2022-12-15T01:11:44.656Z,3.65
2022-12-15T01:12:44.726Z,3.62
2022-12-15T01:13:44.773Z,3.58
2022-12-15T01:14:44.777Z,3.58
2022-12-15T01:15:44.874Z,3.58
2022-12-15T01:16:45.834Z,3.57
2022-12-15T01:17:44.911Z,3.58
2022-12-15T01:18:44.968Z,3.54
2022-12-15T01:19:44.995Z,3.67
2022-12-15T01:20:45.035Z,3.67
2022-12-15T01:21:45.078Z,3.60
2022-12-15T01:22:45.140Z,3.60
2022-12-15T01:23:45.152Z,3.62
2022-12-15T01:24:45.232Z,3.68
2022-12-15T01:25:45.275Z,3.64
2022-12-15T01:26:45.275Z,3.60
2022-12-15T01:27:45.318Z,3.68
2022-12-15T01:28:45.370Z,3.58
2022-12-15T01:29:45.399Z,3.53
2022-12-15T01:30:45.480Z,3.61
2022-12-15T01:31:45.536Z,3.54
2022-12-15T01:32:46.343Z,3.68
2022-12-15T01:33:46.332Z,3.65
2022-12-15T01:34:45.609Z,3.50
2022-12-15T01:35:45.676Z,3.60
2022-12-15T01:36:45.706Z,3.52
2022-12-15T01:37:45.734Z,3.50
2022-12-15T01:38:50.708Z,3.64
2022-12-15T01:39:45.817Z,3.57
2022-12-15T01:40:45.891Z,3.52
2022-12-15T01:41:45.929Z,3.58
2022-12-15T01:42:45.946Z,3.60
2022-12-15T01:43:45.983Z,3.54
2022-12-15T01:44:46.022Z,3.61
2022-12-15T01:45:46.828Z,3.57
2022-12-15T01:46:46.220Z,3.54
2022-12-15T01:47:46.159Z,3.53
2022-12-15T01:48:46.201Z,3.60
2022-12-15T01:49:46.236Z,3.44
2022-12-15T01:50:46.274Z,3.50
2022-12-15T01:51:46.341Z,3.57
2022-12-15T01:52:46.411Z,3.49
2022-12-15T01:53:46.403Z,3.50
2022-12-15T01:54:48.536Z,3.50
2022-12-15T01:55:48.054Z,3.43
2022-12-15T01:56:46.529Z,3.40
2022-12-15T01:57:46.589Z,3.40
2022-12-15T01:58:46.611Z,3.36
2022-12-15T01:59:46.650Z,3.39
2022-12-15T02:00:46.739Z,3.31
2022-12-15T02:01:50.293Z,3.34
2022-12-15T02:02:47.447Z,3.40
2022-12-15T02:03:46.818Z,3.34
2022-12-15T02:04:46.853Z,3.39
2022-12-15T02:05:46.892Z,3.40
2022-12-15T02:06:46.974Z,3.31
2022-12-15T02:07:46.984Z,3.39
2022-12-15T02:08:47.841Z,3.34
2022-12-15T02:09:47.063Z,3.42
2022-12-15T02:10:47.106Z,3.33
2022-12-15T02:11:47.172Z,3.36
2022-12-15T02:12:47.206Z,3.27
2022-12-15T02:13:47.228Z,3.34
2022-12-15T02:14:47.832Z,3.24
2022-12-15T02:15:47.298Z,3.28
2022-12-15T02:16:47.433Z,3.33
2022-12-15T02:17:47.393Z,3.27
2022-12-15T02:18:47.432Z,3.24
2022-12-15T02:19:48.337Z,3.25
2022-12-15T02:20:47.542Z,3.25
2022-12-15T02:21:47.548Z,3.31
2022-12-15T02:22:47.602Z,3.25
2022-12-15T02:23:47.637Z,3.30
2022-12-15T02:24:49.606Z,3.27
2022-12-15T02:25:50.708Z,3.30
2022-12-15T02:26:47.757Z,3.24
2022-12-15T02:27:47.794Z,3.31
2022-12-15T02:28:47.843Z,3.25
2022-12-15T02:29:47.962Z,3.23
2022-12-15T02:30:47.921Z,3.16
2022-12-15T02:31:50.040Z,3.24
2022-12-15T02:32:48.828Z,3.23
2022-12-15T02:33:48.048Z,3.23
2022-12-15T02:34:48.114Z,3.24
2022-12-15T02:35:48.146Z,3.25
2022-12-15T02:36:48.163Z,3.25
2022-12-15T02:37:50.133Z,3.34
2022-12-15T02:38:48.246Z,3.30
2022-12-15T02:39:48.287Z,3.28
2022-12-15T02:40:48.364Z,3.25
2022-12-15T02:41:48.378Z,3.34
2022-12-15T02:42:48.433Z,3.36
2022-12-15T02:43:49.928Z,3.42
2022-12-15T02:44:48.489Z,3.39
2022-12-15T02:45:48.578Z,3.39
2022-12-15T02:46:48.575Z,3.33
2022-12-15T02:47:48.645Z,3.39
2022-12-15T02:48:48.652Z,3.40
2022-12-15T02:49:49.738Z,3.40
2022-12-15T02:50:49.336Z,3.31
2022-12-15T02:51:48.788Z,3.36
2022-12-15T02:52:48.825Z,3.42
2022-12-15T02:53:48.875Z,3.34
2022-12-15T02:54:48.923Z,3.39
2022-12-15T02:55:50.373Z,3.34
2022-12-15T02:56:48.985Z,3.43
2022-12-15T02:57:49.047Z,3.36
2022-12-15T02:58:49.065Z,3.40
2022-12-15T02:59:49.134Z,3.39
2022-12-15T03:00:49.194Z,3.40
2022-12-15T03:01:49.813Z,3.36
2022-12-15T03:02:49.352Z,3.40
2022-12-15T03:03:49.279Z,3.31
2022-12-15T03:04:49.341Z,3.34
2022-12-15T03:05:49.387Z,3.42
2022-12-15T03:06:50.330Z,3.34
2022-12-15T03:07:49.598Z,3.33
2022-12-15T03:08:49.488Z,3.33
2022-12-15T03:09:49.517Z,3.31
2022-12-15T03:10:49.585Z,3.34
2022-12-15T03:11:49.602Z,3.27
2022-12-15T03:12:50.336Z,3.24
2022-12-15T03:13:49.925Z,3.25
2022-12-15T03:14:49.757Z,3.30
2022-12-15T03:15:50.341Z,3.31
2022-12-15T03:16:49.907Z,3.30
2022-12-15T03:17:49.870Z,3.33
2022-12-15T03:18:50.840Z,3.34
2022-12-15T03:19:50.051Z,3.40
2022-12-15T03:20:49.971Z,3.34
2022-12-15T03:21:50.023Z,3.42
2022-12-15T03:22:50.092Z,3.42
2022-12-15T03:23:50.102Z,3.42
2022-12-15T03:24:50.150Z,3.39
2022-12-15T03:25:50.184Z,3.34
2022-12-15T03:26:50.318Z,3.34
2022-12-15T03:27:50.307Z,3.33
2022-12-15T03:28:50.369Z,3.52
2022-12-15T03:29:50.344Z,3.50
2022-12-15T03:30:50.812Z,3.49
2022-12-15T03:31:50.532Z,3.62
2022-12-15T03:32:50.478Z,3.60
2022-12-15T03:33:50.546Z,3.50
2022-12-15T03:34:50.583Z,3.53
2022-12-15T03:35:50.623Z,3.53
2022-12-15T03:36:50.643Z,3.60
2022-12-15T03:37:50.692Z,3.70
2022-12-15T03:38:50.715Z,3.67
2022-12-15T03:39:50.758Z,3.67
2022-12-15T03:40:50.800Z,3.62
2022-12-15T03:41:50.880Z,3.65
2022-12-15T03:42:50.918Z,3.67
2022-12-15T03:43:50.924Z,3.62
2022-12-15T03:44:50.992Z,3.62
2022-12-15T03:45:51.052Z,3.65
2022-12-15T03:46:51.074Z,3.61
2022-12-15T03:47:51.836Z,3.60
2022-12-15T03:48:51.159Z,3.68
2022-12-15T03:49:51.840Z,3.65
2022-12-15T03:50:51.212Z,3.54
2022-12-15T03:51:51.249Z,3.57
2022-12-15T03:52:51.300Z,3.44
2022-12-15T03:53:51.363Z,3.46
2022-12-15T03:54:51.374Z,3.49
2022-12-15T03:55:51.417Z,3.53
2022-12-15T03:56:51.470Z,3.50
2022-12-15T03:57:51.521Z,3.47
2022-12-15T03:58:51.554Z,3.46
2022-12-15T03:59:52.340Z,3.50
2022-12-15T04:00:51.626Z,3.43
2022-12-15T04:01:51.784Z,3.43
2022-12-15T04:02:51.953Z,3.46
2022-12-15T04:03:54.307Z,3.39
2022-12-15T04:04:51.789Z,3.40
2022-12-15T04:05:52.335Z,3.33
2022-12-15T04:06:51.904Z,3.36
2022-12-15T04:07:51.924Z,3.33
2022-12-15T04:08:51.960Z,3.40
2022-12-15T04:09:52.024Z,3.34
2022-12-15T04:10:52.836Z,3.31
2022-12-15T04:11:52.087Z,3.31
2022-12-15T04:12:52.131Z,3.34
2022-12-15T04:13:52.187Z,3.28
2022-12-15T04:14:52.232Z,3.33
2022-12-15T04:15:52.283Z,3.24
2022-12-15T04:16:52.890Z,3.25
2022-12-15T04:17:52.328Z,3.18
2022-12-15T04:18:52.379Z,3.15
2022-12-15T04:19:52.418Z,3.16
2022-12-15T04:20:52.536Z,3.21
2022-12-15T04:21:52.513Z,3.16
2022-12-15T04:22:52.547Z,3.12
2022-12-15T04:23:52.582Z,3.12
2022-12-15T04:24:52.618Z,3.09
2022-12-15T04:25:52.688Z,3.06
2022-12-15T04:26:52.698Z,3.05
2022-12-15T04:27:54.807Z,3.06
2022-12-15T04:28:53.343Z,3.00
2022-12-15T04:29:52.828Z,3.00
2022-12-15T04:30:52.934Z,3.05
2022-12-15T04:31:52.911Z,3.07
2022-12-15T04:32:52.944Z,3.02
2022-12-15T04:33:52.994Z,2.98
2022-12-15T04:34:53.841Z,2.94
2022-12-15T04:35:53.110Z,2.94
2022-12-15T04:36:53.119Z,3.00
2022-12-15T04:37:53.187Z,2.98
2022-12-15T04:38:53.200Z,2.97
2022-12-15T04:39:53.259Z,2.98
2022-12-15T04:40:53.837Z,2.98
2022-12-15T04:41:53.837Z,3.00
2022-12-15T04:42:53.357Z,2.97
2022-12-15T04:43:53.433Z,2.98
2022-12-15T04:44:53.444Z,3.02
2022-12-15T04:45:53.528Z,3.00
2022-12-15T04:46:53.519Z,3.06
2022-12-15T04:47:53.560Z,3.07
2022-12-15T04:48:53.631Z,3.05
2022-12-15T04:49:53.641Z,3.03
2022-12-15T04:50:53.686Z,3.05
2022-12-15T04:51:53.731Z,3.10
2022-12-15T04:52:53.776Z,3.06
2022-12-15T04:53:55.529Z,3.02
2022-12-15T04:54:53.874Z,3.03
2022-12-15T04:55:53.894Z,3.02
2022-12-15T04:56:53.925Z,3.00
2022-12-15T04:57:54.843Z,3.03
2022-12-15T04:58:54.021Z,3.09
2022-12-15T05:00:07.098Z,3.02
2022-12-15T05:00:54.094Z,3.06
2022-12-15T05:01:54.253Z,3.05
2022-12-15T05:02:54.206Z,2.97
2022-12-15T05:03:54.283Z,3.10
2022-12-15T05:04:54.257Z,3.06
2022-12-15T05:05:54.304Z,3.09
2022-12-15T05:06:54.352Z,3.02
2022-12-15T05:07:54.387Z,3.16
2022-12-15T05:08:54.466Z,3.13
2022-12-15T05:09:58.421Z,3.05
2022-12-15T05:10:54.508Z,3.09
2022-12-15T05:11:54.547Z,3.12
2022-12-15T05:12:54.598Z,3.12
2022-12-15T05:13:54.651Z,3.00
2022-12-15T05:14:54.696Z,3.07
2022-12-15T05:15:54.802Z,3.10
2022-12-15T05:16:54.823Z,3.02
2022-12-15T05:17:54.791Z,3.03
2022-12-15T05:18:54.840Z,3.03
2022-12-15T05:19:54.887Z,2.95
2022-12-15T05:20:54.951Z,2.95
2022-12-15T05:21:54.958Z,2.98
2022-12-15T05:22:55.002Z,3.05
2022-12-15T05:23:55.037Z,3.02
2022-12-15T05:24:55.085Z,2.98
2022-12-15T05:25:55.156Z,3.00
2022-12-15T05:26:55.169Z,3.12
2022-12-15T05:27:55.222Z,3.09
2022-12-15T05:28:55.242Z,3.16
2022-12-15T05:29:55.287Z,3.12
2022-12-15T05:30:55.369Z,3.23
2022-12-15T05:31:55.377Z,3.12
2022-12-15T05:32:55.437Z,3.23
2022-12-15T05:33:58.290Z,3.18
2022-12-15T05:34:55.529Z,3.28
2022-12-15T05:35:56.378Z,3.20
2022-12-15T05:36:55.584Z,3.30
2022-12-15T05:37:55.627Z,3.33
2022-12-15T05:38:56.379Z,3.31
2022-12-15T05:39:55.732Z,3.34
2022-12-15T05:40:55.733Z,3.30
2022-12-15T05:41:55.783Z,3.27
2022-12-15T05:42:55.876Z,3.34
2022-12-15T05:43:55.857Z,3.33
2022-12-15T05:44:56.885Z,3.33
2022-12-15T05:45:56.922Z,3.31
2022-12-15T05:46:55.991Z,3.25
2022-12-15T05:47:56.041Z,3.24
2022-12-15T05:48:56.070Z,3.16
2022-12-15T05:49:56.106Z,3.18
2022-12-15T05:50:56.185Z,3.20
2022-12-15T05:51:56.215Z,3.15
2022-12-15T05:52:56.227Z,3.15
2022-12-15T05:53:56.268Z,3.24
2022-12-15T05:54:56.318Z,3.13
2022-12-15T05:55:56.386Z,3.18
2022-12-15T05:56:56.396Z,3.15
2022-12-15T05:57:56.440Z,3.13
2022-12-15T05:58:56.474Z,3.05
2022-12-15T05:59:56.514Z,3.03
2022-12-15T06:00:56.592Z,3.05
2022-12-15T06:01:56.625Z,3.00
2022-12-15T06:02:56.709Z,3.06
2022-12-15T06:03:56.673Z,3.03
2022-12-15T06:04:56.786Z,3.05
2022-12-15T06:05:56.849Z,3.15
2022-12-15T06:06:56.839Z,3.10
2022-12-15T06:07:56.849Z,2.98
2022-12-15T06:08:56.878Z,2.95
2022-12-15T06:09:56.921Z,3.00
2022-12-15T06:10:56.969Z,3.03
2022-12-15T06:11:57.040Z,3.02
2022-12-15T06:12:57.050Z,2.94
2022-12-15T06:13:57.890Z,2.92
2022-12-15T06:14:57.138Z,2.95
2022-12-15T06:15:57.215Z,2.94
2022-12-15T06:16:57.313Z,2.91
2022-12-15T06:17:57.262Z,2.91
2022-12-15T06:18:57.884Z,2.89
2022-12-15T06:19:57.882Z,2.91
2022-12-15T06:20:57.890Z,2.94
2022-12-15T06:21:57.449Z,2.88
2022-12-15T06:22:57.456Z,2.95
2022-12-15T06:23:57.502Z,2.94
2022-12-15T06:24:57.534Z,2.87
2022-12-15T06:25:58.394Z,2.91
2022-12-15T06:26:57.651Z,2.94
2022-12-15T06:28:01.742Z,2.89
2022-12-15T06:28:57.693Z,2.91
2022-12-15T06:29:57.738Z,2.97
2022-12-15T06:30:57.813Z,2.91
2022-12-15T06:31:57.890Z,2.97
2022-12-15T06:32:57.864Z,2.94
2022-12-15T06:34:02.069Z,2.92
2022-12-15T06:34:57.978Z,2.89
2022-12-15T06:35:57.984Z,2.91
2022-12-15T06:36:58.023Z,2.97
2022-12-15T06:37:58.070Z,2.88
2022-12-15T06:38:58.137Z,2.76
2022-12-15T06:39:58.151Z,2.81
2022-12-15T06:40:58.192Z,2.84
2022-12-15T06:41:58.224Z,2.85
2022-12-15T06:42:58.281Z,2.87
2022-12-15T06:43:58.343Z,2.91
2022-12-15T06:44:58.350Z,2.82
2022-12-15T06:45:58.398Z,2.91
2022-12-15T06:46:58.460Z,2.89
2022-12-15T06:48:01.557Z,2.87
2022-12-15T06:48:58.563Z,2.81
2022-12-15T06:49:58.552Z,2.87
2022-12-15T06:50:59.389Z,2.87
2022-12-15T06:51:58.673Z,2.76
2022-12-15T06:52:58.672Z,2.74
2022-12-15T06:53:59.382Z,2.79
2022-12-15T06:54:58.752Z,2.87
2022-12-15T06:55:58.794Z,2.84
2022-12-15T06:56:58.869Z,2.95
2022-12-15T06:57:58.876Z,2.94
2022-12-15T06:58:58.941Z,2.94
2022-12-15T06:59:58.957Z,2.98
2022-12-15T07:00:59.029Z,3.00
2022-12-15T07:01:59.164Z,2.97
2022-12-15T07:02:59.332Z,3.02
2022-12-15T07:03:59.437Z,3.05
2022-12-15T07:04:59.160Z,2.98
2022-12-15T07:05:59.212Z,3.02
2022-12-15T07:06:59.282Z,2.98
2022-12-15T07:07:59.282Z,3.05
2022-12-15T07:08:59.323Z,3.07
2022-12-15T07:09:59.379Z,3.03
2022-12-15T07:11:00.393Z,3.10
2022-12-15T07:11:59.483Z,3.12
2022-12-15T07:12:59.493Z,3.15
2022-12-15T07:13:59.530Z,3.05
2022-12-15T07:14:59.593Z,3.02
2022-12-15T07:15:59.657Z,3.06
2022-12-15T07:16:59.680Z,3.10
2022-12-15T07:17:59.693Z,3.16
2022-12-15T07:18:59.738Z,3.09
2022-12-15T07:19:59.809Z,3.10
2022-12-15T07:21:00.394Z,3.13
2022-12-15T07:21:59.850Z,3.06
2022-12-15T07:23:00.888Z,3.12
2022-12-15T07:27:11.548Z,3.10
2022-12-15T07:28:11.575Z,3.12
2022-12-15T07:29:11.610Z,3.18
2022-12-15T07:30:12.487Z,3.15
2022-12-15T07:31:11.740Z,3.15
2022-12-15T07:32:11.768Z,3.10
2022-12-15T07:33:11.778Z,3.21
2022-12-15T07:34:11.852Z,3.15
2022-12-15T07:35:11.850Z,3.10
2022-12-15T07:36:11.894Z,3.10
2022-12-15T07:37:11.953Z,3.13
2022-12-15T07:38:11.973Z,3.10
2022-12-15T07:39:12.067Z,3.16
2022-12-15T07:40:12.077Z,3.18
2022-12-15T07:41:12.129Z,3.10
2022-12-15T07:43:53.273Z,3.16
2022-12-15T07:44:53.259Z,3.10
2022-12-15T07:45:53.929Z,3.16
2022-12-15T07:46:53.358Z,3.13
2022-12-15T07:47:53.378Z,3.12
2022-12-15T07:48:53.379Z,3.21
2022-12-15T07:49:53.521Z,3.12
2022-12-15T07:50:53.521Z,3.12
2022-12-15T07:51:54.389Z,3.13
2022-12-15T07:52:53.565Z,3.10
2022-12-15T07:53:53.641Z,3.13
2022-12-15T07:54:53.760Z,3.10
2022-12-15T07:56:07.036Z,3.12
2022-12-15T07:56:53.739Z,3.07
2022-12-15T07:57:53.782Z,3.09
2022-12-15T07:58:53.861Z,3.12
2022-12-15T07:59:53.884Z,3.12
2022-12-15T08:00:54.916Z,3.15
2022-12-15T08:01:54.134Z,3.16
2022-12-15T08:02:55.027Z,3.06
2022-12-15T08:03:54.121Z,2.95
2022-12-15T08:04:54.095Z,2.94
2022-12-15T08:05:56.622Z,2.91
2022-12-15T08:06:54.851Z,2.77
2022-12-15T08:07:54.166Z,2.70
2022-12-15T08:08:54.874Z,2.67
2022-12-15T08:09:54.901Z,2.69
2022-12-15T08:10:54.865Z,2.70
2022-12-15T08:11:54.445Z,2.74
2022-12-15T08:12:54.413Z,2.74
2022-12-15T08:14:03.447Z,2.88
2022-12-15T08:14:54.472Z,2.77
2022-12-15T08:15:55.401Z,2.84
2022-12-15T08:16:54.683Z,2.87
2022-12-15T08:17:54.565Z,2.84
2022-12-15T08:18:54.655Z,2.85
2022-12-15T08:19:58.740Z,2.87
2022-12-15T08:20:54.709Z,2.89
2022-12-15T08:21:54.753Z,2.85
2022-12-15T08:22:54.775Z,2.91
2022-12-15T08:23:54.865Z,2.92
2022-12-15T08:24:54.891Z,2.84
2022-12-15T08:25:54.997Z,2.97
2022-12-15T08:26:54.966Z,2.87
2022-12-15T08:27:55.859Z,2.79
2022-12-15T08:28:55.050Z,2.76
2022-12-15T08:29:55.097Z,2.82
2022-12-15T08:30:55.208Z,2.88
2022-12-15T08:31:55.896Z,2.79
2022-12-15T08:32:55.871Z,2.76
2022-12-15T08:33:55.260Z,2.76
2022-12-15T08:34:55.839Z,2.76
2022-12-15T08:35:57.146Z,2.81
2022-12-15T08:36:55.388Z,2.76
2022-12-15T08:37:55.528Z,2.85
2022-12-15T08:38:56.375Z,2.89
2022-12-15T09:53:55.810Z,3.62
2022-12-15T10:59:34.132Z,3.20
2022-12-15T11:00:34.727Z,3.16
2022-12-15T11:01:34.307Z,3.18
2022-12-15T11:02:34.881Z,3.16
2022-12-15T11:03:34.566Z,3.15
2022-12-15T11:04:35.249Z,3.16
2022-12-15T11:05:35.233Z,3.15
2022-12-15T11:06:34.398Z,3.28
2022-12-15T11:07:35.237Z,3.16
2022-12-15T11:08:34.442Z,3.18
2022-12-15T11:09:35.233Z,3.10
2022-12-15T11:10:35.228Z,3.10
2022-12-15T11:11:34.580Z,3.13
2022-12-15T11:12:34.597Z,3.16
2022-12-15T11:13:35.213Z,3.20
2022-12-15T11:14:34.702Z,3.15
2022-12-15T11:15:35.318Z,3.23
2022-12-15T11:16:35.722Z,3.21
2022-12-15T11:17:34.792Z,3.21
2022-12-15T11:18:34.848Z,3.33
2022-12-15T11:19:34.912Z,3.36
2022-12-15T11:20:35.729Z,3.43
2022-12-15T11:21:34.966Z,3.39
2022-12-15T11:22:35.919Z,3.28
2022-12-15T11:23:35.561Z,3.33
2022-12-15T11:24:35.736Z,3.36
2022-12-15T11:25:35.735Z,3.40
2022-12-15T11:26:35.728Z,3.33
2022-12-15T11:27:35.231Z,3.34
2022-12-15T11:28:35.249Z,3.39
2022-12-15T11:29:35.293Z,3.34
2022-12-15T11:30:36.224Z,3.34
2022-12-15T11:31:35.385Z,3.40
2022-12-15T11:32:36.227Z,3.42
2022-12-15T11:33:35.752Z,3.40
2022-12-15T11:34:35.565Z,3.33
2022-12-15T11:35:36.228Z,3.31
2022-12-15T11:36:36.228Z,3.33
2022-12-15T11:37:36.874Z,3.28
2022-12-15T11:38:36.264Z,3.23
2022-12-15T11:39:35.724Z,3.21
2022-12-15T11:40:36.732Z,3.18
2022-12-15T11:41:36.722Z,3.21
2022-12-15T11:42:35.853Z,3.25
2022-12-15T11:43:36.564Z,3.24
2022-12-15T11:44:35.901Z,3.34
2022-12-15T11:45:36.734Z,3.42
2022-12-15T11:46:36.731Z,3.40
2022-12-15T11:47:36.749Z,3.30
2022-12-15T11:48:36.134Z,3.31
2022-12-15T11:49:40.981Z,3.21
2022-12-15T11:50:36.154Z,3.21
2022-12-15T11:51:36.737Z,3.21
2022-12-15T11:52:36.308Z,3.15
2022-12-15T11:53:36.544Z,3.10
2022-12-15T11:54:36.340Z,3.15
2022-12-15T11:55:41.167Z,3.12
2022-12-15T11:56:36.391Z,3.20
2022-12-15T11:57:37.233Z,3.21
2022-12-15T11:58:37.231Z,3.18
2022-12-15T11:59:36.535Z,3.21
2022-12-15T12:00:36.568Z,3.24
2022-12-15T12:01:36.640Z,3.30
2022-12-15T12:02:37.375Z,3.34
2022-12-15T12:03:37.234Z,3.33
2022-12-15T12:04:36.782Z,3.33
2022-12-15T12:05:37.762Z,3.34
2022-12-15T12:27:38.969Z,3.94
2022-12-15T12:28:38.928Z,3.90
2022-12-15T12:29:38.977Z,3.89
2022-12-15T12:30:39.005Z,3.92
2022-12-15T12:31:39.049Z,3.94
2022-12-15T12:32:39.116Z,3.98
2022-12-15T12:33:40.093Z,3.92
2022-12-15T12:34:39.163Z,3.92
2022-12-15T12:35:39.206Z,3.92
2022-12-15T12:36:39.259Z,3.97
2022-12-15T12:37:39.307Z,3.97
2022-12-15T12:53:06.317Z,4.01
2022-12-15T12:54:17.736Z,4.00
2022-12-15T12:55:09.636Z,4.03
2022-12-15T12:56:06.405Z,3.98
2022-12-15T12:57:06.439Z,4.00
2022-12-15T12:58:07.060Z,4.01
2022-12-15T12:59:06.527Z,4.01
2022-12-15T13:00:06.587Z,4.03
2022-12-15T13:01:06.734Z,3.94
2022-12-15T13:02:06.775Z,4.01
2022-12-15T13:03:06.690Z,3.89
2022-12-15T13:04:06.740Z,3.97
2022-12-15T13:05:06.793Z,4.06
2022-12-15T13:06:06.805Z,3.92
2022-12-15T13:07:12.796Z,4.01
2022-12-15T13:08:06.912Z,3.94
2022-12-15T13:09:06.928Z,3.86
2022-12-15T13:10:06.970Z,3.86
2022-12-15T13:11:07.004Z,3.89
2022-12-15T13:12:27.317Z,3.86
2022-12-15T13:13:07.130Z,3.78
2022-12-15T13:14:10.587Z,3.76
2022-12-15T13:15:07.176Z,3.78
2022-12-15T13:16:07.214Z,3.70
2022-12-15T13:20:26.978Z,3.75
2022-12-15T13:24:12.309Z,3.76
2022-12-15T13:25:12.317Z,3.67
2022-12-15T16:46:25.667Z,2.23
2022-12-15T16:47:25.639Z,2.26
2022-12-15T16:48:25.738Z,2.19
2022-12-15T16:49:26.239Z,2.26
2022-12-15T16:50:25.749Z,2.27
2022-12-15T16:51:26.742Z,2.30
2022-12-15T16:52:25.835Z,2.20
2022-12-15T16:53:25.848Z,2.27
2022-12-15T16:54:25.898Z,2.31
2022-12-15T16:55:25.958Z,2.30
2022-12-15T16:56:25.966Z,2.30
2022-12-15T16:57:26.000Z,2.22
2022-12-15T16:58:26.747Z,2.30
2022-12-15T16:59:34.631Z,2.35
2022-12-15T17:00:26.160Z,2.28
2022-12-15T17:01:26.284Z,2.31
2022-12-15T17:02:26.366Z,2.37
2022-12-15T17:03:26.881Z,2.33
2022-12-15T18:12:38.065Z,2.31
2022-12-15T18:13:39.146Z,2.30
2022-12-15T18:14:38.113Z,2.35
2022-12-15T18:15:39.065Z,2.37
2022-12-15T18:16:38.277Z,2.28
2022-12-15T18:17:38.236Z,2.31
2022-12-15T18:18:38.283Z,2.33
2022-12-15T18:19:38.326Z,2.31
2022-12-15T18:20:39.067Z,2.31
2022-12-15T18:21:38.373Z,2.28
2022-12-15T18:22:39.064Z,2.27
2022-12-15T18:23:38.437Z,2.27
2022-12-15T18:24:38.495Z,2.23
2022-12-15T18:25:38.519Z,2.19
2022-12-15T18:26:38.563Z,2.20
2022-12-15T18:27:38.594Z,2.15
2022-12-15T18:28:38.635Z,2.15
2022-12-15T18:29:38.712Z,2.15
2022-12-15T18:30:38.734Z,2.16
2022-12-15T18:31:38.817Z,2.19
2022-12-15T18:32:38.796Z,2.09
2022-12-15T18:33:38.838Z,2.13
2022-12-15T18:34:38.866Z,2.10
2022-12-15T18:35:38.941Z,2.17
2022-12-15T18:36:39.573Z,2.13
2022-12-15T18:37:39.573Z,2.13
2022-12-15T18:38:39.023Z,2.08
2022-12-15T18:39:39.086Z,2.08
2022-12-15T18:40:39.133Z,2.08
2022-12-15T18:41:40.078Z,2.06
2022-12-15T18:42:39.207Z,2.02
2022-12-15T18:43:39.231Z,1.97
2022-12-15T18:44:40.071Z,1.97
2022-12-15T18:45:40.074Z,2.02
2022-12-15T18:46:42.044Z,2.06
2022-12-15T18:47:39.432Z,2.01
2022-12-15T18:48:39.436Z,2.02
2022-12-15T18:49:40.075Z,1.99
2022-12-15T18:50:40.066Z,1.98
2022-12-15T18:51:40.069Z,2.02
2022-12-15T18:52:39.612Z,1.98
2022-12-15T18:53:39.630Z,2.02
2022-12-15T18:54:39.658Z,2.04
2022-12-15T18:55:40.571Z,1.99
2022-12-15T18:56:39.737Z,1.99
2022-12-15T18:57:39.827Z,1.91
2022-12-15T18:58:39.824Z,1.93
2022-12-15T18:59:39.855Z,1.94
2022-12-15T19:00:39.953Z,1.90
2022-12-15T19:01:40.070Z,1.93
2022-12-15T19:02:40.107Z,1.97
2022-12-15T19:03:40.028Z,1.91
2022-12-15T19:04:40.073Z,1.93
2022-12-15T19:05:40.145Z,1.89
2022-12-15T19:06:41.127Z,2.02
2022-12-15T19:07:40.186Z,1.98
2022-12-15T19:08:40.220Z,1.93
2022-12-15T19:09:40.271Z,1.98
2022-12-15T19:10:40.323Z,1.89
2022-12-15T19:11:40.374Z,1.97
2022-12-15T19:12:41.073Z,1.90
2022-12-15T19:13:40.444Z,1.89
2022-12-15T19:14:40.536Z,1.93
2022-12-15T19:15:40.521Z,1.94
2022-12-15T19:16:40.551Z,1.97
2022-12-15T19:17:40.582Z,1.91
2022-12-15T19:18:41.567Z,1.98
2022-12-15T19:19:40.656Z,1.93
2022-12-15T19:20:40.736Z,1.98
2022-12-15T19:21:40.739Z,1.91
2022-12-15T19:22:40.784Z,1.93
2022-12-15T19:23:40.823Z,1.93
2022-12-15T19:24:41.576Z,1.94
2022-12-15T19:25:40.929Z,1.97
2022-12-15T19:26:40.939Z,1.97
2022-12-15T19:27:40.981Z,1.94
2022-12-15T19:28:41.036Z,1.99
2022-12-15T19:29:41.062Z,1.91
2022-12-15T19:30:42.431Z,1.98
2022-12-15T19:31:41.158Z,1.94
2022-12-15T19:32:41.177Z,1.99
2022-12-15T19:33:41.247Z,1.98
2022-12-15T19:34:41.260Z,1.98
2022-12-15T19:35:41.322Z,1.91
2022-12-15T19:36:42.083Z,2.01
2022-12-15T19:37:41.368Z,1.91
2022-12-15T19:38:41.409Z,1.97
2022-12-15T19:39:41.448Z,1.98
2022-12-15T19:40:41.528Z,1.91
2022-12-15T19:41:41.536Z,1.97
2022-12-15T19:42:41.577Z,1.93
2022-12-15T19:43:41.617Z,1.94
2022-12-15T19:44:42.576Z,1.94
2022-12-15T19:45:41.782Z,1.93
2022-12-15T19:46:41.739Z,1.97
2022-12-15T19:47:41.776Z,1.97
2022-12-15T19:48:42.574Z,1.87
2022-12-15T19:49:41.851Z,1.90
2022-12-15T19:50:41.921Z,1.93
2022-12-15T19:51:42.571Z,1.90
2022-12-15T19:52:41.969Z,1.89
2022-12-15T19:53:42.037Z,1.85
2022-12-15T19:54:42.052Z,1.89
2022-12-15T19:55:42.151Z,1.93
2022-12-15T19:56:42.130Z,1.91
2022-12-15T19:57:42.170Z,1.87
2022-12-15T19:58:42.243Z,1.85
2022-12-15T19:59:42.251Z,1.87
2022-12-15T20:00:43.156Z,1.79
2022-12-15T20:01:42.446Z,1.78
2022-12-15T20:02:42.482Z,1.82
2022-12-15T20:03:42.502Z,1.83
2022-12-15T20:04:42.447Z,1.76
2022-12-15T20:05:43.072Z,1.73
2022-12-15T20:06:42.527Z,1.80
2022-12-15T20:07:42.580Z,1.71
2022-12-15T20:08:42.646Z,1.85
2022-12-15T20:09:42.640Z,1.80
2022-12-15T20:10:43.577Z,1.72
2022-12-15T20:11:42.752Z,1.85
2022-12-15T20:12:42.770Z,1.76
2022-12-15T20:13:42.823Z,1.85
2022-12-15T20:14:42.852Z,1.89
2022-12-15T20:15:42.892Z,1.82
2022-12-15T20:16:42.986Z,1.79
2022-12-15T20:17:42.962Z,1.75
2022-12-15T20:18:43.038Z,1.83
2022-12-15T20:19:43.050Z,1.82
2022-12-15T20:20:43.128Z,1.76
2022-12-15T20:21:43.140Z,1.83
2022-12-15T20:22:43.166Z,1.80
2022-12-15T20:23:44.077Z,1.83
2022-12-15T20:24:43.279Z,1.73
2022-12-15T20:25:44.101Z,1.80
2022-12-15T20:26:43.341Z,1.73
2022-12-15T20:27:43.371Z,1.75
2022-12-15T20:28:43.410Z,1.79
2022-12-15T20:29:43.434Z,1.78
2022-12-15T20:30:44.077Z,1.82
2022-12-15T20:31:43.643Z,1.80
2022-12-15T20:32:44.075Z,1.76
2022-12-15T20:33:43.606Z,1.76
2022-12-15T20:34:44.567Z,1.76
2022-12-15T20:35:44.261Z,1.83
2022-12-15T20:36:43.741Z,1.83
2022-12-15T20:37:43.795Z,1.79
2022-12-15T20:38:43.788Z,1.82
2022-12-15T20:39:43.835Z,1.80
2022-12-15T20:40:44.301Z,1.82
2022-12-15T20:41:44.585Z,1.80
2022-12-15T20:42:43.987Z,1.79
2022-12-15T20:43:44.568Z,1.76
2022-12-15T20:49:56.302Z,1.73
2022-12-15T20:50:46.409Z,1.78
2022-12-15T20:51:46.484Z,1.78
2022-12-15T20:52:46.481Z,1.82
2022-12-15T20:53:46.523Z,1.79
2022-12-15T20:54:46.570Z,1.76
2022-12-15T20:55:47.281Z,1.78
2022-12-15T20:56:46.687Z,1.80
2022-12-15T20:57:46.696Z,1.79